sensor_id;sensor_type;location;lat;lon;timestamp;temperature;humidity
23267;DHT22;11802;53.160;8.214;2022-11-20T00:01:17;1.10;99.90
23267;DHT22;11802;53.160;8.214;2022-11-20T00:03:43;1.00;99.90
23267;DHT22;11802;53.160;8.214;2022-11-20T00:06:13;1.10;99.90
23267;DHT22;11802;53.160;8.214;2022-11-20T00:08:39;1.10;99.90
23267;DHT22;11802;53.160;8.214;2022-11-20T00:11:07;1.10;99.90
23267;DHT22;11802;53.160;8.214;2022-11-20T00:13:33;1.10;99.90
23267;DHT22;11802;53.160;8.214;2022-11-20T00:16:01;1.00;99.90
23267;DHT22;11802;53.160;8.214;2022-11-20T00:18:27;1.10;99.90
23267;DHT22;11802;53.160;8.214;2022-11-20T00:20:52;1.10;99.90
23267;DHT22;11802;53.160;8.214;2022-11-20T00:23:19;1.10;99.90
23267;DHT22;11802;53.160;8.214;2022-11-20T00:25:45;1.20;99.90
23267;DHT22;11802;53.160;8.214;2022-11-20T00:28:10;1.20;99.90
23267;DHT22;11802;53.160;8.214;2022-11-20T00:30:36;1.20;99.90
23267;DHT22;11802;53.160;8.214;2022-11-20T00:33:01;1.20;99.90
23267;DHT22;11802;53.160;8.214;2022-11-20T00:35:27;1.20;99.90
23267;DHT22;11802;53.160;8.214;2022-11-20T00:37:52;1.20;99.90
23267;DHT22;11802;53.160;8.214;2022-11-20T00:40:18;1.20;99.90
23267;DHT22;11802;53.160;8.214;2022-11-20T00:42:44;1.20;99.90
23267;DHT22;11802;53.160;8.214;2022-11-20T00:45:09;1.20;99.90
23267;DHT22;11802;53.160;8.214;2022-11-20T00:47:35;1.10;99.90
23267;DHT22;11802;53.160;8.214;2022-11-20T00:50:00;1.20;99.90
23267;DHT22;11802;53.160;8.214;2022-11-20T00:52:26;1.20;99.90
23267;DHT22;11802;53.160;8.214;2022-11-20T00:54:51;1.20;99.90
23267;DHT22;11802;53.160;8.214;2022-11-20T00:57:17;1.20;99.90
23267;DHT22;11802;53.160;8.214;2022-11-20T00:59:42;1.20;99.90
23267;DHT22;11802;53.160;8.214;2022-11-20T01:02:08;1.20;99.90
23267;DHT22;11802;53.160;8.214;2022-11-20T01:04:33;1.20;99.90
23267;DHT22;11802;53.160;8.214;2022-11-20T01:06:59;1.20;99.90
23267;DHT22;11802;53.160;8.214;2022-11-20T01:09:24;1.20;99.90
23267;DHT22;11802;53.160;8.214;2022-11-20T01:11:50;1.20;99.90
23267;DHT22;11802;53.160;8.214;2022-11-20T01:14:18;1.10;99.90
23267;DHT22;11802;53.160;8.214;2022-11-20T01:16:49;1.10;99.90
23267;DHT22;11802;53.160;8.214;2022-11-20T01:19:18;1.10;99.90
23267;DHT22;11802;53.160;8.214;2022-11-20T01:21:45;1.10;99.90
23267;DHT22;11802;53.160;8.214;2022-11-20T01:24:13;1.10;99.90
23267;DHT22;11802;53.160;8.214;2022-11-20T01:26:41;1.10;99.90
23267;DHT22;11802;53.160;8.214;2022-11-20T01:29:09;1.10;99.90
23267;DHT22;11802;53.160;8.214;2022-11-20T01:31:37;1.10;99.90
23267;DHT22;11802;53.160;8.214;2022-11-20T01:34:07;1.10;99.90
23267;DHT22;11802;53.160;8.214;2022-11-20T01:36:34;1.10;99.90
23267;DHT22;11802;53.160;8.214;2022-11-20T01:39:06;1.10;99.90
23267;DHT22;11802;53.160;8.214;2022-11-20T01:41:33;1.10;99.90
23267;DHT22;11802;53.160;8.214;2022-11-20T01:44:20;1.10;99.90
23267;DHT22;11802;53.160;8.214;2022-11-20T01:47:01;1.10;99.90
23267;DHT22;11802;53.160;8.214;2022-11-20T01:49:40;1.20;99.90
23267;DHT22;11802;53.160;8.214;2022-11-20T01:52:34;1.10;99.90
23267;DHT22;11802;53.160;8.214;2022-11-20T01:55:06;1.10;99.90
23267;DHT22;11802;53.160;8.214;2022-11-20T01:57:33;1.20;99.90
23267;DHT22;11802;53.160;8.214;2022-11-20T02:00:12;1.20;99.90
23267;DHT22;11802;53.160;8.214;2022-11-20T02:02:42;1.20;99.90
23267;DHT22;11802;53.160;8.214;2022-11-20T02:05:24;1.20;99.90
23267;DHT22;11802;53.160;8.214;2022-11-20T02:07:51;1.20;99.90
23267;DHT22;11802;53.160;8.214;2022-11-20T02:10:18;1.20;99.90
23267;DHT22;11802;53.160;8.214;2022-11-20T02:12:43;1.20;99.90
23267;DHT22;11802;53.160;8.214;2022-11-20T02:15:28;1.20;99.90
23267;DHT22;11802;53.160;8.214;2022-11-20T02:17:53;1.20;99.90
23267;DHT22;11802;53.160;8.214;2022-11-20T02:20:19;1.30;99.90
23267;DHT22;11802;53.160;8.214;2022-11-20T02:22:53;1.30;99.90
23267;DHT22;11802;53.160;8.214;2022-11-20T02:25:20;1.30;99.90
23267;DHT22;11802;53.160;8.214;2022-11-20T02:27:46;1.20;99.90
23267;DHT22;11802;53.160;8.214;2022-11-20T02:30:12;1.20;99.90
23267;DHT22;11802;53.160;8.214;2022-11-20T02:32:38;1.20;99.90
23267;DHT22;11802;53.160;8.214;2022-11-20T02:35:35;1.20;99.90
23267;DHT22;11802;53.160;8.214;2022-11-20T02:37:57;1.20;99.90
23267;DHT22;11802;53.160;8.214;2022-11-20T02:40:23;1.30;99.90
23267;DHT22;11802;53.160;8.214;2022-11-20T02:42:53;1.30;99.90
23267;DHT22;11802;53.160;8.214;2022-11-20T02:45:19;1.30;99.90
23267;DHT22;11802;53.160;8.214;2022-11-20T02:47:44;1.30;99.90
23267;DHT22;11802;53.160;8.214;2022-11-20T02:50:10;1.30;99.90
23267;DHT22;11802;53.160;8.214;2022-11-20T02:52:35;1.30;99.90
23267;DHT22;11802;53.160;8.214;2022-11-20T02:55:07;1.30;99.90
23267;DHT22;11802;53.160;8.214;2022-11-20T02:57:33;1.20;99.90
23267;DHT22;11802;53.160;8.214;2022-11-20T02:59:59;1.20;99.90
23267;DHT22;11802;53.160;8.214;2022-11-20T03:02:24;1.20;99.90
23267;DHT22;11802;53.160;8.214;2022-11-20T03:04:50;1.30;99.90
23267;DHT22;11802;53.160;8.214;2022-11-20T03:07:15;1.30;99.90
23267;DHT22;11802;53.160;8.214;2022-11-20T03:09:41;1.30;99.90
23267;DHT22;11802;53.160;8.214;2022-11-20T03:12:06;1.30;99.90
23267;DHT22;11802;53.160;8.214;2022-11-20T03:14:32;1.30;99.90
23267;DHT22;11802;53.160;8.214;2022-11-20T03:16:58;1.30;99.90
23267;DHT22;11802;53.160;8.214;2022-11-20T03:19:23;1.30;99.90
23267;DHT22;11802;53.160;8.214;2022-11-20T03:21:49;1.30;99.90
23267;DHT22;11802;53.160;8.214;2022-11-20T03:24:15;1.40;99.90
23267;DHT22;11802;53.160;8.214;2022-11-20T03:26:41;1.40;99.90
23267;DHT22;11802;53.160;8.214;2022-11-20T03:29:07;1.40;99.90
23267;DHT22;11802;53.160;8.214;2022-11-20T03:31:37;1.40;99.90
23267;DHT22;11802;53.160;8.214;2022-11-20T03:34:05;1.40;99.90
23267;DHT22;11802;53.160;8.214;2022-11-20T03:36:32;1.40;99.90
23267;DHT22;11802;53.160;8.214;2022-11-20T03:38:57;1.40;99.90
23267;DHT22;11802;53.160;8.214;2022-11-20T03:41:28;1.40;99.90
23267;DHT22;11802;53.160;8.214;2022-11-20T03:43:56;1.40;99.90
23267;DHT22;11802;53.160;8.214;2022-11-20T03:46:24;1.40;99.90
23267;DHT22;11802;53.160;8.214;2022-11-20T03:48:51;1.40;99.90
23267;DHT22;11802;53.160;8.214;2022-11-20T03:51:19;1.40;99.90
23267;DHT22;11802;53.160;8.214;2022-11-20T03:53:46;1.30;99.90
23267;DHT22;11802;53.160;8.214;2022-11-20T03:56:14;1.40;99.90
23267;DHT22;11802;53.160;8.214;2022-11-20T03:58:40;1.30;99.90
23267;DHT22;11802;53.160;8.214;2022-11-20T04:01:18;1.30;99.90
23267;DHT22;11802;53.160;8.214;2022-11-20T04:03:44;1.40;99.90
23267;DHT22;11802;53.160;8.214;2022-11-20T04:06:22;1.40;99.90
23267;DHT22;11802;53.160;8.214;2022-11-20T04:08:48;1.30;99.90
23267;DHT22;11802;53.160;8.214;2022-11-20T04:11:18;1.30;99.90
23267;DHT22;11802;53.160;8.214;2022-11-20T04:13:53;1.30;99.90
23267;DHT22;11802;53.160;8.214;2022-11-20T04:16:20;1.30;99.90
23267;DHT22;11802;53.160;8.214;2022-11-20T04:18:46;1.30;99.90
23267;DHT22;11802;53.160;8.214;2022-11-20T04:21:12;1.20;99.90
23267;DHT22;11802;53.160;8.214;2022-11-20T04:23:38;1.20;99.90
23267;DHT22;11802;53.160;8.214;2022-11-20T04:26:06;1.20;99.90
23267;DHT22;11802;53.160;8.214;2022-11-20T04:28:32;1.30;99.90
23267;DHT22;11802;53.160;8.214;2022-11-20T04:31:12;1.40;99.90
23267;DHT22;11802;53.160;8.214;2022-11-20T04:33:39;1.50;99.90
23267;DHT22;11802;53.160;8.214;2022-11-20T04:36:16;1.50;99.90
23267;DHT22;11802;53.160;8.214;2022-11-20T04:38:43;1.50;99.90
23267;DHT22;11802;53.160;8.214;2022-11-20T04:41:14;1.50;99.90
23267;DHT22;11802;53.160;8.214;2022-11-20T04:43:40;1.50;99.90
23267;DHT22;11802;53.160;8.214;2022-11-20T04:46:05;1.50;99.90
23267;DHT22;11802;53.160;8.214;2022-11-20T04:48:31;1.50;99.90
23267;DHT22;11802;53.160;8.214;2022-11-20T04:50:57;1.50;99.90
23267;DHT22;11802;53.160;8.214;2022-11-20T04:53:23;1.50;99.90
23267;DHT22;11802;53.160;8.214;2022-11-20T04:55:49;1.50;99.90
23267;DHT22;11802;53.160;8.214;2022-11-20T04:58:16;1.50;99.90
23267;DHT22;11802;53.160;8.214;2022-11-20T05:00:42;1.50;99.90
23267;DHT22;11802;53.160;8.214;2022-11-20T05:03:07;1.50;99.90
23267;DHT22;11802;53.160;8.214;2022-11-20T05:05:34;1.50;99.90
23267;DHT22;11802;53.160;8.214;2022-11-20T05:08:00;1.50;99.90
23267;DHT22;11802;53.160;8.214;2022-11-20T05:10:27;1.60;99.90
23267;DHT22;11802;53.160;8.214;2022-11-20T05:12:53;1.50;99.90
23267;DHT22;11802;53.160;8.214;2022-11-20T05:15:19;1.50;99.90
23267;DHT22;11802;53.160;8.214;2022-11-20T05:17:51;1.50;99.90
23267;DHT22;11802;53.160;8.214;2022-11-20T05:20:17;1.50;99.90
23267;DHT22;11802;53.160;8.214;2022-11-20T05:22:43;1.50;99.90
23267;DHT22;11802;53.160;8.214;2022-11-20T05:25:10;1.40;99.90
23267;DHT22;11802;53.160;8.214;2022-11-20T05:27:35;1.50;99.90
23267;DHT22;11802;53.160;8.214;2022-11-20T05:30:02;1.50;99.90
23267;DHT22;11802;53.160;8.214;2022-11-20T05:32:27;1.50;99.90
23267;DHT22;11802;53.160;8.214;2022-11-20T05:34:53;1.50;99.90
23267;DHT22;11802;53.160;8.214;2022-11-20T05:37:18;1.50;99.90
23267;DHT22;11802;53.160;8.214;2022-11-20T05:39:44;1.40;99.90
23267;DHT22;11802;53.160;8.214;2022-11-20T05:42:09;1.40;99.90
23267;DHT22;11802;53.160;8.214;2022-11-20T05:44:54;1.40;99.90
23267;DHT22;11802;53.160;8.214;2022-11-20T05:47:19;1.40;99.90
23267;DHT22;11802;53.160;8.214;2022-11-20T05:49:45;1.40;99.90
23267;DHT22;11802;53.160;8.214;2022-11-20T05:52:10;1.40;99.90
23267;DHT22;11802;53.160;8.214;2022-11-20T05:54:36;1.40;99.90
23267;DHT22;11802;53.160;8.214;2022-11-20T05:57:01;1.40;99.90
23267;DHT22;11802;53.160;8.214;2022-11-20T05:59:27;1.40;99.90
23267;DHT22;11802;53.160;8.214;2022-11-20T06:01:52;1.40;99.90
23267;DHT22;11802;53.160;8.214;2022-11-20T06:04:18;1.30;99.90
23267;DHT22;11802;53.160;8.214;2022-11-20T06:06:43;1.30;99.90
23267;DHT22;11802;53.160;8.214;2022-11-20T06:09:09;1.30;99.90
23267;DHT22;11802;53.160;8.214;2022-11-20T06:11:34;1.30;99.90
23267;DHT22;11802;53.160;8.214;2022-11-20T06:14:00;1.30;99.90
23267;DHT22;11802;53.160;8.214;2022-11-20T06:16:25;1.20;99.90
23267;DHT22;11802;53.160;8.214;2022-11-20T06:18:51;1.20;99.90
23267;DHT22;11802;53.160;8.214;2022-11-20T06:21:18;1.20;99.90
23267;DHT22;11802;53.160;8.214;2022-11-20T06:23:44;1.20;99.90
23267;DHT22;11802;53.160;8.214;2022-11-20T06:26:13;1.20;99.90
23267;DHT22;11802;53.160;8.214;2022-11-20T06:28:39;1.20;99.90
23267;DHT22;11802;53.160;8.214;2022-11-20T06:31:05;1.20;99.90
23267;DHT22;11802;53.160;8.214;2022-11-20T06:33:31;1.10;99.90
23267;DHT22;11802;53.160;8.214;2022-11-20T06:35:59;1.10;99.90
23267;DHT22;11802;53.160;8.214;2022-11-20T06:38:25;1.10;99.90
23267;DHT22;11802;53.160;8.214;2022-11-20T06:40:51;1.10;99.90
23267;DHT22;11802;53.160;8.214;2022-11-20T06:43:16;1.10;99.90
23267;DHT22;11802;53.160;8.214;2022-11-20T06:45:42;1.10;99.90
23267;DHT22;11802;53.160;8.214;2022-11-20T06:48:08;1.10;99.90
23267;DHT22;11802;53.160;8.214;2022-11-20T06:50:36;1.10;99.90
23267;DHT22;11802;53.160;8.214;2022-11-20T06:53:02;1.00;99.90
23267;DHT22;11802;53.160;8.214;2022-11-20T06:55:28;1.00;99.90
23267;DHT22;11802;53.160;8.214;2022-11-20T06:57:54;1.00;99.90
23267;DHT22;11802;53.160;8.214;2022-11-20T07:00:19;1.10;99.90
23267;DHT22;11802;53.160;8.214;2022-11-20T07:02:45;1.10;99.90
23267;DHT22;11802;53.160;8.214;2022-11-20T07:05:10;1.10;99.90
23267;DHT22;11802;53.160;8.214;2022-11-20T07:07:36;1.20;99.90
23267;DHT22;11802;53.160;8.214;2022-11-20T07:10:01;1.10;99.90
23267;DHT22;11802;53.160;8.214;2022-11-20T07:12:27;1.10;99.90
23267;DHT22;11802;53.160;8.214;2022-11-20T07:14:52;1.20;99.90
23267;DHT22;11802;53.160;8.214;2022-11-20T07:17:18;1.20;99.90
23267;DHT22;11802;53.160;8.214;2022-11-20T07:19:43;1.20;99.90
23267;DHT22;11802;53.160;8.214;2022-11-20T07:22:09;1.10;99.90
23267;DHT22;11802;53.160;8.214;2022-11-20T07:24:34;1.10;99.90
23267;DHT22;11802;53.160;8.214;2022-11-20T07:27:00;1.10;99.90
23267;DHT22;11802;53.160;8.214;2022-11-20T07:29:26;1.20;99.90
23267;DHT22;11802;53.160;8.214;2022-11-20T07:31:51;1.20;99.90
23267;DHT22;11802;53.160;8.214;2022-11-20T07:34:17;1.20;99.90
23267;DHT22;11802;53.160;8.214;2022-11-20T07:36:42;1.20;99.90
23267;DHT22;11802;53.160;8.214;2022-11-20T07:39:08;1.10;99.90
23267;DHT22;11802;53.160;8.214;2022-11-20T07:41:33;1.20;99.90
23267;DHT22;11802;53.160;8.214;2022-11-20T07:43:59;1.20;99.90
23267;DHT22;11802;53.160;8.214;2022-11-20T07:46:24;1.30;99.90
23267;DHT22;11802;53.160;8.214;2022-11-20T07:48:50;1.40;99.90
23267;DHT22;11802;53.160;8.214;2022-11-20T07:51:15;1.40;99.90
23267;DHT22;11802;53.160;8.214;2022-11-20T07:53:41;1.40;99.90
23267;DHT22;11802;53.160;8.214;2022-11-20T07:56:07;1.40;99.90
23267;DHT22;11802;53.160;8.214;2022-11-20T07:58:32;1.40;99.90
23267;DHT22;11802;53.160;8.214;2022-11-20T08:01:06;1.40;99.90
23267;DHT22;11802;53.160;8.214;2022-11-20T08:03:32;1.50;99.90
23267;DHT22;11802;53.160;8.214;2022-11-20T08:05:59;1.50;99.90
23267;DHT22;11802;53.160;8.214;2022-11-20T08:08:26;1.50;99.90
23267;DHT22;11802;53.160;8.214;2022-11-20T08:10:51;1.50;99.90
23267;DHT22;11802;53.160;8.214;2022-11-20T08:13:17;1.50;99.90
23267;DHT22;11802;53.160;8.214;2022-11-20T08:16:01;1.50;99.90
23267;DHT22;11802;53.160;8.214;2022-11-20T08:18:26;1.60;99.90
23267;DHT22;11802;53.160;8.214;2022-11-20T08:20:52;1.60;99.90
23267;DHT22;11802;53.160;8.214;2022-11-20T08:23:17;1.60;99.90
23267;DHT22;11802;53.160;8.214;2022-11-20T08:25:43;1.60;99.90
23267;DHT22;11802;53.160;8.214;2022-11-20T08:28:09;1.60;99.90
23267;DHT22;11802;53.160;8.214;2022-11-20T08:30:36;1.60;99.90
23267;DHT22;11802;53.160;8.214;2022-11-20T08:33:07;1.70;99.90
23267;DHT22;11802;53.160;8.214;2022-11-20T08:35:35;1.80;99.90
23267;DHT22;11802;53.160;8.214;2022-11-20T08:38:05;1.80;99.90
23267;DHT22;11802;53.160;8.214;2022-11-20T08:40:31;1.80;99.90
23267;DHT22;11802;53.160;8.214;2022-11-20T08:42:57;1.90;99.90
23267;DHT22;11802;53.160;8.214;2022-11-20T08:45:23;1.90;99.90
23267;DHT22;11802;53.160;8.214;2022-11-20T08:47:48;2.00;99.90
23267;DHT22;11802;53.160;8.214;2022-11-20T08:50:15;2.10;99.90
23267;DHT22;11802;53.160;8.214;2022-11-20T08:52:41;2.20;99.90
23267;DHT22;11802;53.160;8.214;2022-11-20T08:55:07;2.20;99.90
23267;DHT22;11802;53.160;8.214;2022-11-20T08:57:34;2.20;99.90
23267;DHT22;11802;53.160;8.214;2022-11-20T08:59:59;2.20;99.90
23267;DHT22;11802;53.160;8.214;2022-11-20T09:02:25;2.10;99.90
23267;DHT22;11802;53.160;8.214;2022-11-20T09:04:51;2.00;99.90
23267;DHT22;11802;53.160;8.214;2022-11-20T09:07:16;2.00;99.90
23267;DHT22;11802;53.160;8.214;2022-11-20T09:09:42;2.00;99.90
23267;DHT22;11802;53.160;8.214;2022-11-20T09:12:07;2.00;99.90
23267;DHT22;11802;53.160;8.214;2022-11-20T09:14:33;2.20;99.90
23267;DHT22;11802;53.160;8.214;2022-11-20T09:16:59;2.20;99.90
23267;DHT22;11802;53.160;8.214;2022-11-20T09:19:24;2.30;99.90
23267;DHT22;11802;53.160;8.214;2022-11-20T09:21:51;2.40;99.90
23267;DHT22;11802;53.160;8.214;2022-11-20T09:24:17;2.50;99.90
23267;DHT22;11802;53.160;8.214;2022-11-20T09:26:42;2.60;99.90
23267;DHT22;11802;53.160;8.214;2022-11-20T09:29:08;2.70;99.90
23267;DHT22;11802;53.160;8.214;2022-11-20T09:31:33;2.80;99.90
23267;DHT22;11802;53.160;8.214;2022-11-20T09:33:59;2.90;99.90
23267;DHT22;11802;53.160;8.214;2022-11-20T09:36:24;3.00;99.90
23267;DHT22;11802;53.160;8.214;2022-11-20T09:38:50;3.00;99.90
23267;DHT22;11802;53.160;8.214;2022-11-20T09:52:45;2.90;99.90
23267;DHT22;11802;53.160;8.214;2022-11-20T09:55:14;2.90;99.90
23267;DHT22;11802;53.160;8.214;2022-11-20T09:57:44;2.80;99.90
23267;DHT22;11802;53.160;8.214;2022-11-20T10:00:12;2.80;99.90
23267;DHT22;11802;53.160;8.214;2022-11-20T10:03:01;2.90;99.90
23267;DHT22;11802;53.160;8.214;2022-11-20T10:05:42;2.90;99.90
23267;DHT22;11802;53.160;8.214;2022-11-20T10:08:25;2.90;99.90
23267;DHT22;11802;53.160;8.214;2022-11-20T10:11:21;3.00;99.90
23267;DHT22;11802;53.160;8.214;2022-11-20T10:14:26;3.10;99.90
23267;DHT22;11802;53.160;8.214;2022-11-20T10:19:59;2.80;99.90
23267;DHT22;11802;53.160;8.214;2022-11-20T10:22:36;2.90;99.90
23267;DHT22;11802;53.160;8.214;2022-11-20T10:31:01;3.10;99.90
23267;DHT22;11802;53.160;8.214;2022-11-20T10:33:33;3.10;99.90
23267;DHT22;11802;53.160;8.214;2022-11-20T10:38:44;3.20;99.90
23267;DHT22;11802;53.160;8.214;2022-11-20T10:41:29;3.40;99.90
23267;DHT22;11802;53.160;8.214;2022-11-20T10:44:15;3.50;99.90
23267;DHT22;11802;53.160;8.214;2022-11-20T10:47:00;3.50;99.90
23267;DHT22;11802;53.160;8.214;2022-11-20T10:49:26;3.50;99.90
23267;DHT22;11802;53.160;8.214;2022-11-20T10:57:31;3.80;99.90
23267;DHT22;11802;53.160;8.214;2022-11-20T11:00:06;3.60;99.90
23267;DHT22;11802;53.160;8.214;2022-11-20T11:05:42;3.80;99.90
23267;DHT22;11802;53.160;8.214;2022-11-20T11:08:17;4.20;99.90
23267;DHT22;11802;53.160;8.214;2022-11-20T11:13:30;4.50;99.90
23267;DHT22;11802;53.160;8.214;2022-11-20T11:15:56;4.40;99.90
23267;DHT22;11802;53.160;8.214;2022-11-20T11:18:34;4.40;99.90
23267;DHT22;11802;53.160;8.214;2022-11-20T11:21:01;4.30;99.90
23267;DHT22;11802;53.160;8.214;2022-11-20T11:23:33;4.30;99.90
23267;DHT22;11802;53.160;8.214;2022-11-20T11:26:01;4.30;99.90
23267;DHT22;11802;53.160;8.214;2022-11-20T11:28:27;4.60;99.90
23267;DHT22;11802;53.160;8.214;2022-11-20T11:30:54;4.90;99.90
23267;DHT22;11802;53.160;8.214;2022-11-20T11:33:27;4.90;99.90
23267;DHT22;11802;53.160;8.214;2022-11-20T11:35:59;4.70;99.90
23267;DHT22;11802;53.160;8.214;2022-11-20T11:38:33;4.60;99.90
23267;DHT22;11802;53.160;8.214;2022-11-20T11:41:00;4.70;99.90
23267;DHT22;11802;53.160;8.214;2022-11-20T11:43:29;4.70;99.90
23267;DHT22;11802;53.160;8.214;2022-11-20T11:52:02;4.80;99.90
23267;DHT22;11802;53.160;8.214;2022-11-20T11:54:41;4.70;99.90
23267;DHT22;11802;53.160;8.214;2022-11-20T11:57:27;4.60;99.90
23267;DHT22;11802;53.160;8.214;2022-11-20T12:00:02;4.50;99.90
23267;DHT22;11802;53.160;8.214;2022-11-20T12:05:23;4.30;99.90
23267;DHT22;11802;53.160;8.214;2022-11-20T12:16:14;4.20;99.90
23267;DHT22;11802;53.160;8.214;2022-11-20T12:18:43;4.30;99.90
23267;DHT22;11802;53.160;8.214;2022-11-20T12:24:10;4.30;99.90
23267;DHT22;11802;53.160;8.214;2022-11-20T12:26:43;4.30;99.90
23267;DHT22;11802;53.160;8.214;2022-11-20T12:29:21;4.30;99.90
23267;DHT22;11802;53.160;8.214;2022-11-20T12:34:43;4.20;99.90
23267;DHT22;11802;53.160;8.214;2022-11-20T12:39:58;4.00;99.90
23267;DHT22;11802;53.160;8.214;2022-11-20T12:45:54;3.80;99.90
23267;DHT22;11802;53.160;8.214;2022-11-20T12:48:36;3.80;99.90
23267;DHT22;11802;53.160;8.214;2022-11-20T12:56:55;3.50;99.90
23267;DHT22;11802;53.160;8.214;2022-11-20T13:02:34;3.40;99.90
23267;DHT22;11802;53.160;8.214;2022-11-20T13:07:38;3.30;99.90
23267;DHT22;11802;53.160;8.214;2022-11-20T13:10:06;3.30;99.90
23267;DHT22;11802;53.160;8.214;2022-11-20T13:12:50;3.30;99.90
23267;DHT22;11802;53.160;8.214;2022-11-20T13:15:44;3.30;99.90
23267;DHT22;11802;53.160;8.214;2022-11-20T13:18:13;3.30;99.90
23267;DHT22;11802;53.160;8.214;2022-11-20T13:20:44;3.30;99.90
23267;DHT22;11802;53.160;8.214;2022-11-20T13:23:10;3.40;99.90
23267;DHT22;11802;53.160;8.214;2022-11-20T13:25:38;3.60;99.90
23267;DHT22;11802;53.160;8.214;2022-11-20T13:28:26;3.70;99.90
23267;DHT22;11802;53.160;8.214;2022-11-20T13:30:53;4.00;99.90
23267;DHT22;11802;53.160;8.214;2022-11-20T13:33:27;4.20;99.90
23267;DHT22;11802;53.160;8.214;2022-11-20T13:38:24;4.30;99.90
23267;DHT22;11802;53.160;8.214;2022-11-20T13:40:54;4.20;99.90
23267;DHT22;11802;53.160;8.214;2022-11-20T13:43:38;4.30;99.90
23267;DHT22;11802;53.160;8.214;2022-11-20T13:46:08;4.40;99.90
23267;DHT22;11802;53.160;8.214;2022-11-20T13:48:40;4.40;99.90
23267;DHT22;11802;53.160;8.214;2022-11-20T13:51:33;4.40;99.90
23267;DHT22;11802;53.160;8.214;2022-11-20T14:02:29;4.30;99.90
23267;DHT22;11802;53.160;8.214;2022-11-20T14:04:58;4.30;99.90
23267;DHT22;11802;53.160;8.214;2022-11-20T14:07:36;4.20;99.90
23267;DHT22;11802;53.160;8.214;2022-11-20T14:10:03;4.00;99.90
23267;DHT22;11802;53.160;8.214;2022-11-20T14:12:31;4.10;99.90
23267;DHT22;11802;53.160;8.214;2022-11-20T14:14:59;4.00;99.90
23267;DHT22;11802;53.160;8.214;2022-11-20T14:17:35;4.00;99.90
23267;DHT22;11802;53.160;8.214;2022-11-20T14:20:07;3.80;99.90
23267;DHT22;11802;53.160;8.214;2022-11-20T14:22:37;3.70;99.90
23267;DHT22;11802;53.160;8.214;2022-11-20T14:27:35;3.50;99.90
23267;DHT22;11802;53.160;8.214;2022-11-20T14:30:03;3.40;99.90
23267;DHT22;11802;53.160;8.214;2022-11-20T14:32:30;3.30;99.90
23267;DHT22;11802;53.160;8.214;2022-11-20T14:35:02;3.30;99.90
23267;DHT22;11802;53.160;8.214;2022-11-20T14:37:36;3.20;99.90
23267;DHT22;11802;53.160;8.214;2022-11-20T14:40:02;3.10;99.90
23267;DHT22;11802;53.160;8.214;2022-11-20T14:42:29;3.00;99.90
23267;DHT22;11802;53.160;8.214;2022-11-20T14:44:58;3.00;99.90
23267;DHT22;11802;53.160;8.214;2022-11-20T14:47:26;2.90;99.90
23267;DHT22;11802;53.160;8.214;2022-11-20T14:49:54;2.80;99.90
23267;DHT22;11802;53.160;8.214;2022-11-20T14:52:24;2.80;99.90
23267;DHT22;11802;53.160;8.214;2022-11-20T14:54:55;2.80;99.90
23267;DHT22;11802;53.160;8.214;2022-11-20T14:57:30;2.80;99.90
23267;DHT22;11802;53.160;8.214;2022-11-20T15:02:51;2.80;99.90
23267;DHT22;11802;53.160;8.214;2022-11-20T15:05:20;2.80;99.90
23267;DHT22;11802;53.160;8.214;2022-11-20T15:08:07;2.70;99.90
23267;DHT22;11802;53.160;8.214;2022-11-20T15:10:33;2.70;99.90
23267;DHT22;11802;53.160;8.214;2022-11-20T15:13:13;2.60;99.90
23267;DHT22;11802;53.160;8.214;2022-11-20T15:15:46;2.40;99.90
23267;DHT22;11802;53.160;8.214;2022-11-20T15:18:28;2.30;99.90
23267;DHT22;11802;53.160;8.214;2022-11-20T15:20:56;2.10;99.90
23267;DHT22;11802;53.160;8.214;2022-11-20T15:23:23;2.00;99.90
23267;DHT22;11802;53.160;8.214;2022-11-20T15:25:49;1.90;99.90
23267;DHT22;11802;53.160;8.214;2022-11-20T15:28:37;1.80;99.90
23267;DHT22;11802;53.160;8.214;2022-11-20T15:31:05;1.70;99.90
23267;DHT22;11802;53.160;8.214;2022-11-20T15:33:32;1.60;99.90
23267;DHT22;11802;53.160;8.214;2022-11-20T15:35:58;1.50;99.90
23267;DHT22;11802;53.160;8.214;2022-11-20T15:38:24;1.40;99.90
23267;DHT22;11802;53.160;8.214;2022-11-20T15:40:49;1.40;99.90
23267;DHT22;11802;53.160;8.214;2022-11-20T15:43:15;1.40;99.90
23267;DHT22;11802;53.160;8.214;2022-11-20T15:45:42;1.30;99.90
23267;DHT22;11802;53.160;8.214;2022-11-20T15:48:18;1.30;99.90
23267;DHT22;11802;53.160;8.214;2022-11-20T15:50:54;1.20;99.90
23267;DHT22;11802;53.160;8.214;2022-11-20T15:53:21;1.10;99.90
23267;DHT22;11802;53.160;8.214;2022-11-20T15:55:47;1.00;99.90
23267;DHT22;11802;53.160;8.214;2022-11-20T15:58:13;1.00;99.90
23267;DHT22;11802;53.160;8.214;2022-11-20T16:00:39;0.90;99.90
23267;DHT22;11802;53.160;8.214;2022-11-20T16:03:04;0.90;99.90
23267;DHT22;11802;53.160;8.214;2022-11-20T16:05:30;0.80;99.90
23267;DHT22;11802;53.160;8.214;2022-11-20T16:07:56;0.70;99.90
23267;DHT22;11802;53.160;8.214;2022-11-20T16:10:22;0.60;99.90
23267;DHT22;11802;53.160;8.214;2022-11-20T16:12:48;0.50;99.90
23267;DHT22;11802;53.160;8.214;2022-11-20T16:15:32;0.40;99.90
23267;DHT22;11802;53.160;8.214;2022-11-20T16:18:12;0.40;99.90
23267;DHT22;11802;53.160;8.214;2022-11-20T16:20:38;0.40;99.90
23267;DHT22;11802;53.160;8.214;2022-11-20T16:23:05;0.40;99.90
23267;DHT22;11802;53.160;8.214;2022-11-20T16:25:31;0.30;99.90
23267;DHT22;11802;53.160;8.214;2022-11-20T16:27:57;0.30;99.90
23267;DHT22;11802;53.160;8.214;2022-11-20T16:30:22;0.30;99.90
23267;DHT22;11802;53.160;8.214;2022-11-20T16:32:48;0.20;99.90
23267;DHT22;11802;53.160;8.214;2022-11-20T16:35:13;0.20;99.90
23267;DHT22;11802;53.160;8.214;2022-11-20T16:37:39;0.20;99.90
23267;DHT22;11802;53.160;8.214;2022-11-20T16:40:05;0.20;99.90
23267;DHT22;11802;53.160;8.214;2022-11-20T16:42:35;0.20;99.90
23267;DHT22;11802;53.160;8.214;2022-11-20T16:45:00;0.20;99.90
23267;DHT22;11802;53.160;8.214;2022-11-20T16:47:26;0.10;99.90
23267;DHT22;11802;53.160;8.214;2022-11-20T16:49:51;0.20;99.90
23267;DHT22;11802;53.160;8.214;2022-11-20T16:52:17;0.20;99.90
23267;DHT22;11802;53.160;8.214;2022-11-20T16:54:42;0.30;99.90
23267;DHT22;11802;53.160;8.214;2022-11-20T16:57:08;0.30;99.90
23267;DHT22;11802;53.160;8.214;2022-11-20T16:59:33;0.40;99.90
23267;DHT22;11802;53.160;8.214;2022-11-20T17:01:59;0.40;99.90
23267;DHT22;11802;53.160;8.214;2022-11-20T17:04:25;0.40;99.90
23267;DHT22;11802;53.160;8.214;2022-11-20T17:06:51;0.40;99.90
23267;DHT22;11802;53.160;8.214;2022-11-20T17:09:17;0.50;99.90
23267;DHT22;11802;53.160;8.214;2022-11-20T17:11:42;0.50;99.90
23267;DHT22;11802;53.160;8.214;2022-11-20T17:14:10;0.50;99.90
23267;DHT22;11802;53.160;8.214;2022-11-20T17:16:36;0.50;99.90
23267;DHT22;11802;53.160;8.214;2022-11-20T17:19:02;0.40;99.90
23267;DHT22;11802;53.160;8.214;2022-11-20T17:21:31;0.30;99.90
23267;DHT22;11802;53.160;8.214;2022-11-20T17:24:08;0.30;99.90
23267;DHT22;11802;53.160;8.214;2022-11-20T17:26:34;0.40;99.90